sensor_id;sensor_type;location;lat;lon;timestamp;temperature;humidity
32201;DHT22;18701;45.588;5.288;2022-12-18T00:00:44;-0.80;99.90
32201;DHT22;18701;45.588;5.288;2022-12-18T00:03:12;-0.70;99.90
32201;DHT22;18701;45.588;5.288;2022-12-18T00:05:48;-0.60;99.90
32201;DHT22;18701;45.588;5.288;2022-12-18T00:08:15;-0.60;99.90
32201;DHT22;18701;45.588;5.288;2022-12-18T00:10:42;-0.60;99.90
32201;DHT22;18701;45.588;5.288;2022-12-18T00:13:07;-0.60;99.90
32201;DHT22;18701;45.588;5.288;2022-12-18T00:15:34;-0.60;99.90
32201;DHT22;18701;45.588;5.288;2022-12-18T00:18:00;-0.70;99.90
32201;DHT22;18701;45.588;5.288;2022-12-18T00:20:25;-0.90;99.90
32201;DHT22;18701;45.588;5.288;2022-12-18T00:22:52;-0.90;99.90
32201;DHT22;18701;45.588;5.288;2022-12-18T00:25:18;-0.90;99.90
32201;DHT22;18701;45.588;5.288;2022-12-18T00:27:43;-0.90;99.90
32201;DHT22;18701;45.588;5.288;2022-12-18T00:30:09;-1.10;99.90
32201;DHT22;18701;45.588;5.288;2022-12-18T00:32:35;-1.10;99.90
32201;DHT22;18701;45.588;5.288;2022-12-18T00:35:01;-1.20;99.90
32201;DHT22;18701;45.588;5.288;2022-12-18T00:37:27;-1.10;99.90
32201;DHT22;18701;45.588;5.288;2022-12-18T00:39:52;-1.10;99.90
32201;DHT22;18701;45.588;5.288;2022-12-18T00:42:18;-1.10;99.90
32201;DHT22;18701;45.588;5.288;2022-12-18T00:45:03;-1.10;99.90
32201;DHT22;18701;45.588;5.288;2022-12-18T00:47:28;-1.10;99.90
32201;DHT22;18701;45.588;5.288;2022-12-18T00:49:54;-1.10;99.90
32201;DHT22;18701;45.588;5.288;2022-12-18T00:52:19;-1.20;99.90
32201;DHT22;18701;45.588;5.288;2022-12-18T00:54:45;-1.20;99.90
32201;DHT22;18701;45.588;5.288;2022-12-18T00:57:11;-1.40;99.90
32201;DHT22;18701;45.588;5.288;2022-12-18T00:59:36;-1.50;99.90
32201;DHT22;18701;45.588;5.288;2022-12-18T01:02:02;-1.70;99.90
32201;DHT22;18701;45.588;5.288;2022-12-18T01:04:31;-1.70;99.90
32201;DHT22;18701;45.588;5.288;2022-12-18T01:06:57;-1.50;99.90
32201;DHT22;18701;45.588;5.288;2022-12-18T01:09:22;-1.50;99.90
32201;DHT22;18701;45.588;5.288;2022-12-18T01:11:48;-1.30;99.90
32201;DHT22;18701;45.588;5.288;2022-12-18T01:14:14;-1.30;99.90
32201;DHT22;18701;45.588;5.288;2022-12-18T01:16:39;-1.20;99.90
32201;DHT22;18701;45.588;5.288;2022-12-18T01:19:05;-1.30;99.90
32201;DHT22;18701;45.588;5.288;2022-12-18T01:21:31;-1.30;99.90
32201;DHT22;18701;45.588;5.288;2022-12-18T01:23:57;-1.40;99.90
32201;DHT22;18701;45.588;5.288;2022-12-18T01:26:23;-1.40;99.90
32201;DHT22;18701;45.588;5.288;2022-12-18T01:28:49;-1.30;99.90
32201;DHT22;18701;45.588;5.288;2022-12-18T01:31:19;-1.30;99.90
32201;DHT22;18701;45.588;5.288;2022-12-18T01:33:45;-1.30;99.90
32201;DHT22;18701;45.588;5.288;2022-12-18T01:36:25;-1.30;99.90
32201;DHT22;18701;45.588;5.288;2022-12-18T01:38:52;-1.20;99.90
32201;DHT22;18701;45.588;5.288;2022-12-18T01:41:23;-1.20;99.90
32201;DHT22;18701;45.588;5.288;2022-12-18T01:43:55;-1.20;99.90
32201;DHT22;18701;45.588;5.288;2022-12-18T01:46:23;-1.30;99.90
32201;DHT22;18701;45.588;5.288;2022-12-18T01:48:52;-1.30;99.90
32201;DHT22;18701;45.588;5.288;2022-12-18T01:51:19;-1.30;99.90
32201;DHT22;18701;45.588;5.288;2022-12-18T01:53:46;-1.40;99.90
32201;DHT22;18701;45.588;5.288;2022-12-18T01:56:20;-1.30;99.90
32201;DHT22;18701;45.588;5.288;2022-12-18T02:01:17;-1.30;99.90
32201;DHT22;18701;45.588;5.288;2022-12-18T02:03:44;-1.40;99.90
32201;DHT22;18701;45.588;5.288;2022-12-18T02:06:20;-1.40;99.90
32201;DHT22;18701;45.588;5.288;2022-12-18T02:11:55;-1.50;99.90
32201;DHT22;18701;45.588;5.288;2022-12-18T02:14:40;-1.40;99.90
32201;DHT22;18701;45.588;5.288;2022-12-18T02:17:25;-1.50;99.90
32201;DHT22;18701;45.588;5.288;2022-12-18T02:25:29;-1.70;99.90
32201;DHT22;18701;45.588;5.288;2022-12-18T02:28:00;-1.70;99.90
32201;DHT22;18701;45.588;5.288;2022-12-18T02:30:30;-1.90;99.90
32201;DHT22;18701;45.588;5.288;2022-12-18T02:32:57;-1.70;99.90
32201;DHT22;18701;45.588;5.288;2022-12-18T02:35:28;-1.70;99.90
32201;DHT22;18701;45.588;5.288;2022-12-18T02:37:55;-1.80;99.90
32201;DHT22;18701;45.588;5.288;2022-12-18T02:40:23;-1.80;99.90
32201;DHT22;18701;45.588;5.288;2022-12-18T02:42:50;-1.70;99.90
32201;DHT22;18701;45.588;5.288;2022-12-18T02:45:15;-1.70;99.90
32201;DHT22;18701;45.588;5.288;2022-12-18T02:47:44;-1.70;99.90
32201;DHT22;18701;45.588;5.288;2022-12-18T02:53:06;-1.70;99.90
32201;DHT22;18701;45.588;5.288;2022-12-18T02:56:01;-1.60;99.90
32201;DHT22;18701;45.588;5.288;2022-12-18T03:03:56;-1.30;99.90
32201;DHT22;18701;45.588;5.288;2022-12-18T03:06:37;-1.40;99.90
32201;DHT22;18701;45.588;5.288;2022-12-18T03:09:09;-1.30;99.90
32201;DHT22;18701;45.588;5.288;2022-12-18T03:11:39;-1.30;99.90
32201;DHT22;18701;45.588;5.288;2022-12-18T03:14:25;-1.20;99.90
32201;DHT22;18701;45.588;5.288;2022-12-18T03:16:53;-1.20;99.90
32201;DHT22;18701;45.588;5.288;2022-12-18T03:19:22;-1.20;99.90
32201;DHT22;18701;45.588;5.288;2022-12-18T03:21:53;-1.10;99.90
32201;DHT22;18701;45.588;5.288;2022-12-18T03:24:21;-1.20;99.90
32201;DHT22;18701;45.588;5.288;2022-12-18T03:26:52;-1.10;99.90
32201;DHT22;18701;45.588;5.288;2022-12-18T03:29:24;-1.10;99.90
32201;DHT22;18701;45.588;5.288;2022-12-18T03:31:55;-1.10;99.90
32201;DHT22;18701;45.588;5.288;2022-12-18T03:34:34;-1.20;99.90
32201;DHT22;18701;45.588;5.288;2022-12-18T03:37:01;-1.20;99.90
32201;DHT22;18701;45.588;5.288;2022-12-18T03:39:27;-1.10;99.90
32201;DHT22;18701;45.588;5.288;2022-12-18T03:42:10;-1.00;99.90
32201;DHT22;18701;45.588;5.288;2022-12-18T03:50:22;-0.90;99.90
32201;DHT22;18701;45.588;5.288;2022-12-18T03:53:01;-0.80;99.90
32201;DHT22;18701;45.588;5.288;2022-12-18T03:55:30;-0.80;99.90
32201;DHT22;18701;45.588;5.288;2022-12-18T03:57:58;-0.70;99.90
32201;DHT22;18701;45.588;5.288;2022-12-18T04:00:25;-0.70;99.90
32201;DHT22;18701;45.588;5.288;2022-12-18T04:02:52;-0.60;99.90
32201;DHT22;18701;45.588;5.288;2022-12-18T04:05:20;-0.60;99.90
32201;DHT22;18701;45.588;5.288;2022-12-18T04:07:48;-0.50;99.90
32201;DHT22;18701;45.588;5.288;2022-12-18T04:10:16;-0.50;99.90
32201;DHT22;18701;45.588;5.288;2022-12-18T04:12:42;-0.40;99.90
32201;DHT22;18701;45.588;5.288;2022-12-18T04:15:08;-0.50;99.90
32201;DHT22;18701;45.588;5.288;2022-12-18T04:17:34;-0.40;99.90
32201;DHT22;18701;45.588;5.288;2022-12-18T04:19:59;-0.40;99.90
32201;DHT22;18701;45.588;5.288;2022-12-18T04:22:25;-0.40;99.90
32201;DHT22;18701;45.588;5.288;2022-12-18T04:24:51;-0.40;99.90
32201;DHT22;18701;45.588;5.288;2022-12-18T04:27:16;-0.40;99.90
32201;DHT22;18701;45.588;5.288;2022-12-18T04:29:42;-0.40;99.90
32201;DHT22;18701;45.588;5.288;2022-12-18T04:32:08;-0.30;99.90
32201;DHT22;18701;45.588;5.288;2022-12-18T04:34:34;-0.40;99.90
32201;DHT22;18701;45.588;5.288;2022-12-18T04:36:59;-0.40;99.90
32201;DHT22;18701;45.588;5.288;2022-12-18T04:39:25;-0.40;99.90
32201;DHT22;18701;45.588;5.288;2022-12-18T04:41:50;-0.40;99.90
32201;DHT22;18701;45.588;5.288;2022-12-18T04:44:16;-0.40;99.90
32201;DHT22;18701;45.588;5.288;2022-12-18T04:46:42;-0.40;99.90
32201;DHT22;18701;45.588;5.288;2022-12-18T04:49:07;-0.40;99.90
32201;DHT22;18701;45.588;5.288;2022-12-18T04:51:33;-0.40;99.90
32201;DHT22;18701;45.588;5.288;2022-12-18T04:53:58;-0.40;99.90
32201;DHT22;18701;45.588;5.288;2022-12-18T04:56:24;-0.40;99.90
32201;DHT22;18701;45.588;5.288;2022-12-18T04:58:49;-0.40;99.90
32201;DHT22;18701;45.588;5.288;2022-12-18T05:01:17;-0.50;99.90
32201;DHT22;18701;45.588;5.288;2022-12-18T05:03:43;-0.50;99.90
32201;DHT22;18701;45.588;5.288;2022-12-18T05:06:09;-0.60;99.90
32201;DHT22;18701;45.588;5.288;2022-12-18T05:08:34;-0.50;99.90
32201;DHT22;18701;45.588;5.288;2022-12-18T05:11:09;-0.50;99.90
32201;DHT22;18701;45.588;5.288;2022-12-18T05:13:36;-0.50;99.90
32201;DHT22;18701;45.588;5.288;2022-12-18T05:16:03;-0.60;99.90
32201;DHT22;18701;45.588;5.288;2022-12-18T05:18:29;-0.60;99.90
32201;DHT22;18701;45.588;5.288;2022-12-18T05:20:55;-0.60;99.90
32201;DHT22;18701;45.588;5.288;2022-12-18T05:23:22;-0.60;99.90
32201;DHT22;18701;45.588;5.288;2022-12-18T05:28:18;-0.80;99.90
32201;DHT22;18701;45.588;5.288;2022-12-18T05:30:51;-0.70;99.90
32201;DHT22;18701;45.588;5.288;2022-12-18T05:33:18;-0.70;99.90
32201;DHT22;18701;45.588;5.288;2022-12-18T05:35:50;-0.60;99.90
32201;DHT22;18701;45.588;5.288;2022-12-18T05:38:17;-0.50;99.90
32201;DHT22;18701;45.588;5.288;2022-12-18T05:40:43;-0.40;99.90
32201;DHT22;18701;45.588;5.288;2022-12-18T05:43:10;-0.40;99.90
32201;DHT22;18701;45.588;5.288;2022-12-18T05:45:39;-0.40;99.90
32201;DHT22;18701;45.588;5.288;2022-12-18T05:48:08;-0.40;99.90
32201;DHT22;18701;45.588;5.288;2022-12-18T05:50:35;-0.50;99.90
32201;DHT22;18701;45.588;5.288;2022-12-18T05:53:02;-0.40;99.90
32201;DHT22;18701;45.588;5.288;2022-12-18T05:55:28;-0.30;99.90
32201;DHT22;18701;45.588;5.288;2022-12-18T05:57:53;-0.30;99.90
32201;DHT22;18701;45.588;5.288;2022-12-18T06:00:19;-0.30;99.90
32201;DHT22;18701;45.588;5.288;2022-12-18T06:02:47;-0.30;99.90
32201;DHT22;18701;45.588;5.288;2022-12-18T06:05:13;-0.20;99.90
32201;DHT22;18701;45.588;5.288;2022-12-18T06:07:39;-0.20;99.90
32201;DHT22;18701;45.588;5.288;2022-12-18T06:10:05;-0.20;99.90
32201;DHT22;18701;45.588;5.288;2022-12-18T06:12:31;-0.20;99.90
32201;DHT22;18701;45.588;5.288;2022-12-18T06:14:59;-0.20;99.90
32201;DHT22;18701;45.588;5.288;2022-12-18T06:17:28;-0.20;99.90
32201;DHT22;18701;45.588;5.288;2022-12-18T06:19:54;-0.20;99.90
32201;DHT22;18701;45.588;5.288;2022-12-18T06:22:20;-0.10;99.90
32201;DHT22;18701;45.588;5.288;2022-12-18T06:24:45;-0.20;99.90
32201;DHT22;18701;45.588;5.288;2022-12-18T06:27:11;-0.20;99.90
32201;DHT22;18701;45.588;5.288;2022-12-18T06:29:36;-0.20;99.90
32201;DHT22;18701;45.588;5.288;2022-12-18T06:32:02;-0.20;99.90
32201;DHT22;18701;45.588;5.288;2022-12-18T06:34:27;-0.20;99.90
32201;DHT22;18701;45.588;5.288;2022-12-18T06:36:56;-0.20;99.90
32201;DHT22;18701;45.588;5.288;2022-12-18T06:39:22;-0.10;99.90
32201;DHT22;18701;45.588;5.288;2022-12-18T06:41:47;-0.10;99.90
32201;DHT22;18701;45.588;5.288;2022-12-18T06:44:13;-0.10;99.90
32201;DHT22;18701;45.588;5.288;2022-12-18T06:46:38;-0.10;99.90
32201;DHT22;18701;45.588;5.288;2022-12-18T06:49:04;-0.10;99.90
32201;DHT22;18701;45.588;5.288;2022-12-18T06:51:30;-0.10;99.90
32201;DHT22;18701;45.588;5.288;2022-12-18T06:53:55;-0.10;99.90
32201;DHT22;18701;45.588;5.288;2022-12-18T06:56:21;-0.10;99.90
32201;DHT22;18701;45.588;5.288;2022-12-18T06:58:47;-0.10;99.90
32201;DHT22;18701;45.588;5.288;2022-12-18T07:01:16;-0.10;99.90
32201;DHT22;18701;45.588;5.288;2022-12-18T07:03:42;-0.10;99.90
32201;DHT22;18701;45.588;5.288;2022-12-18T07:06:14;-0.10;99.90
32201;DHT22;18701;45.588;5.288;2022-12-18T07:08:40;-0.10;99.90
32201;DHT22;18701;45.588;5.288;2022-12-18T07:11:06;-0.10;99.90
32201;DHT22;18701;45.588;5.288;2022-12-18T07:13:31;0.00;99.90
32201;DHT22;18701;45.588;5.288;2022-12-18T07:16:13;0.00;99.90
32201;DHT22;18701;45.588;5.288;2022-12-18T07:18:39;0.10;99.90
32201;DHT22;18701;45.588;5.288;2022-12-18T07:21:07;0.10;99.90
32201;DHT22;18701;45.588;5.288;2022-12-18T07:23:34;0.10;99.90
32201;DHT22;18701;45.588;5.288;2022-12-18T07:26:11;0.10;99.90
32201;DHT22;18701;45.588;5.288;2022-12-18T07:28:38;0.10;99.90
32201;DHT22;18701;45.588;5.288;2022-12-18T07:31:05;0.10;99.90
32201;DHT22;18701;45.588;5.288;2022-12-18T07:33:33;0.10;99.90
32201;DHT22;18701;45.588;5.288;2022-12-18T07:36:02;0.10;99.90
32201;DHT22;18701;45.588;5.288;2022-12-18T07:38:29;0.10;99.90
32201;DHT22;18701;45.588;5.288;2022-12-18T07:41:04;0.10;99.90
32201;DHT22;18701;45.588;5.288;2022-12-18T07:43:29;0.20;99.90
32201;DHT22;18701;45.588;5.288;2022-12-18T07:45:55;0.20;99.90
32201;DHT22;18701;45.588;5.288;2022-12-18T07:48:21;0.20;99.90
32201;DHT22;18701;45.588;5.288;2022-12-18T07:50:46;0.20;99.90
32201;DHT22;18701;45.588;5.288;2022-12-18T07:53:12;0.20;99.90
32201;DHT22;18701;45.588;5.288;2022-12-18T07:55:38;0.20;99.90
32201;DHT22;18701;45.588;5.288;2022-12-18T07:58:04;0.30;99.90
32201;DHT22;18701;45.588;5.288;2022-12-18T08:00:30;0.30;99.90
32201;DHT22;18701;45.588;5.288;2022-12-18T08:02:57;0.40;99.90
32201;DHT22;18701;45.588;5.288;2022-12-18T08:05:23;0.40;99.90
32201;DHT22;18701;45.588;5.288;2022-12-18T08:07:49;0.40;99.90
32201;DHT22;18701;45.588;5.288;2022-12-18T08:10:15;0.50;99.90
32201;DHT22;18701;45.588;5.288;2022-12-18T08:12:40;0.60;99.90
32201;DHT22;18701;45.588;5.288;2022-12-18T08:15:06;0.60;99.90
32201;DHT22;18701;45.588;5.288;2022-12-18T08:17:32;0.60;99.90
32201;DHT22;18701;45.588;5.288;2022-12-18T08:19:58;0.60;99.90
32201;DHT22;18701;45.588;5.288;2022-12-18T08:22:23;0.70;99.90
32201;DHT22;18701;45.588;5.288;2022-12-18T08:24:49;0.70;99.90
32201;DHT22;18701;45.588;5.288;2022-12-18T08:27:14;0.70;99.90
32201;DHT22;18701;45.588;5.288;2022-12-18T08:29:40;0.80;99.90
32201;DHT22;18701;45.588;5.288;2022-12-18T08:32:06;0.90;99.90
32201;DHT22;18701;45.588;5.288;2022-12-18T08:34:32;1.10;99.90
32201;DHT22;18701;45.588;5.288;2022-12-18T08:36:57;1.20;99.90
32201;DHT22;18701;45.588;5.288;2022-12-18T08:39:23;1.30;99.90
32201;DHT22;18701;45.588;5.288;2022-12-18T08:41:48;1.50;99.90
32201;DHT22;18701;45.588;5.288;2022-12-18T08:44:37;1.50;99.90
32201;DHT22;18701;45.588;5.288;2022-12-18T08:47:03;1.60;99.90
32201;DHT22;18701;45.588;5.288;2022-12-18T08:49:29;1.80;99.90
32201;DHT22;18701;45.588;5.288;2022-12-18T08:51:55;1.80;99.90
32201;DHT22;18701;45.588;5.288;2022-12-18T08:54:22;1.90;99.90
32201;DHT22;18701;45.588;5.288;2022-12-18T08:56:48;2.00;99.90
32201;DHT22;18701;45.588;5.288;2022-12-18T08:59:15;2.00;99.90
32201;DHT22;18701;45.588;5.288;2022-12-18T09:01:40;2.10;99.90
32201;DHT22;18701;45.588;5.288;2022-12-18T09:04:08;2.20;99.90
32201;DHT22;18701;45.588;5.288;2022-12-18T09:06:34;2.20;99.90
32201;DHT22;18701;45.588;5.288;2022-12-18T09:08:59;2.20;99.90
32201;DHT22;18701;45.588;5.288;2022-12-18T09:11:27;2.30;99.90
32201;DHT22;18701;45.588;5.288;2022-12-18T09:13:53;2.40;99.90
32201;DHT22;18701;45.588;5.288;2022-12-18T09:16:20;2.40;99.90
32201;DHT22;18701;45.588;5.288;2022-12-18T09:18:46;2.40;99.90
32201;DHT22;18701;45.588;5.288;2022-12-18T09:21:14;2.40;99.90
32201;DHT22;18701;45.588;5.288;2022-12-18T09:23:41;2.40;99.90
32201;DHT22;18701;45.588;5.288;2022-12-18T09:26:07;2.50;99.90
32201;DHT22;18701;45.588;5.288;2022-12-18T09:28:32;2.60;99.90
32201;DHT22;18701;45.588;5.288;2022-12-18T09:30:58;2.70;99.90
32201;DHT22;18701;45.588;5.288;2022-12-18T09:33:24;2.80;99.90
32201;DHT22;18701;45.588;5.288;2022-12-18T09:35:50;2.90;99.90
32201;DHT22;18701;45.588;5.288;2022-12-18T09:38:17;2.90;99.90
32201;DHT22;18701;45.588;5.288;2022-12-18T09:40:57;3.00;99.90
32201;DHT22;18701;45.588;5.288;2022-12-18T09:43:37;3.00;99.90
32201;DHT22;18701;45.588;5.288;2022-12-18T09:46:10;3.10;99.90
32201;DHT22;18701;45.588;5.288;2022-12-18T09:48:40;3.20;99.90
32201;DHT22;18701;45.588;5.288;2022-12-18T09:51:13;3.30;99.90
32201;DHT22;18701;45.588;5.288;2022-12-18T09:53:42;3.30;99.90
32201;DHT22;18701;45.588;5.288;2022-12-18T09:56:16;3.40;99.90
32201;DHT22;18701;45.588;5.288;2022-12-18T09:58:48;3.40;99.90
32201;DHT22;18701;45.588;5.288;2022-12-18T10:01:23;3.40;99.90
32201;DHT22;18701;45.588;5.288;2022-12-18T10:03:50;3.40;99.90
32201;DHT22;18701;45.588;5.288;2022-12-18T10:09:01;3.50;99.90
32201;DHT22;18701;45.588;5.288;2022-12-18T10:17:05;3.80;99.90
32201;DHT22;18701;45.588;5.288;2022-12-18T10:19:55;3.80;99.90
32201;DHT22;18701;45.588;5.288;2022-12-18T10:22:40;3.90;99.90
32201;DHT22;18701;45.588;5.288;2022-12-18T10:28:14;4.00;99.90
32201;DHT22;18701;45.588;5.288;2022-12-18T10:30:41;3.90;99.90
32201;DHT22;18701;45.588;5.288;2022-12-18T10:33:18;3.90;99.90
32201;DHT22;18701;45.588;5.288;2022-12-18T10:35:45;4.00;99.90
32201;DHT22;18701;45.588;5.288;2022-12-18T10:43:35;4.20;99.90
32201;DHT22;18701;45.588;5.288;2022-12-18T10:51:24;4.60;99.90
32201;DHT22;18701;45.588;5.288;2022-12-18T10:54:01;4.80;99.90
32201;DHT22;18701;45.588;5.288;2022-12-18T10:56:29;4.90;99.90
32201;DHT22;18701;45.588;5.288;2022-12-18T10:59:01;5.10;99.90
32201;DHT22;18701;45.588;5.288;2022-12-18T11:01:28;5.20;99.90
32201;DHT22;18701;45.588;5.288;2022-12-18T11:06:23;5.70;99.90
32201;DHT22;18701;45.588;5.288;2022-12-18T11:09:04;6.00;99.90
32201;DHT22;18701;45.588;5.288;2022-12-18T11:11:31;6.40;99.90
32201;DHT22;18701;45.588;5.288;2022-12-18T11:14:06;7.60;99.90
32201;DHT22;18701;45.588;5.288;2022-12-18T11:16:44;7.90;99.90
32201;DHT22;18701;45.588;5.288;2022-12-18T11:21:56;9.70;99.90
32201;DHT22;18701;45.588;5.288;2022-12-18T11:24:34;11.10;99.90
32201;DHT22;18701;45.588;5.288;2022-12-18T11:27:05;12.30;99.90
32201;DHT22;18701;45.588;5.288;2022-12-18T11:29:39;14.30;99.90
32201;DHT22;18701;45.588;5.288;2022-12-18T11:34:53;16.00;99.90
32201;DHT22;18701;45.588;5.288;2022-12-18T11:37:23;16.50;98.70
32201;DHT22;18701;45.588;5.288;2022-12-18T11:39:51;16.50;98.50
32201;DHT22;18701;45.588;5.288;2022-12-18T11:42:25;16.70;98.20
32201;DHT22;18701;45.588;5.288;2022-12-18T11:50:32;17.80;97.10
32201;DHT22;18701;45.588;5.288;2022-12-18T11:52:59;19.10;95.00
32201;DHT22;18701;45.588;5.288;2022-12-18T12:11:57;12.60;99.90
32201;DHT22;18701;45.588;5.288;2022-12-18T12:14:38;14.40;99.90
32201;DHT22;18701;45.588;5.288;2022-12-18T12:25:33;19.70;95.50
32201;DHT22;18701;45.588;5.288;2022-12-18T12:28:13;19.90;94.80
32201;DHT22;18701;45.588;5.288;2022-12-18T12:39:38;21.90;91.40
32201;DHT22;18701;45.588;5.288;2022-12-18T12:42:33;21.30;91.70
32201;DHT22;18701;45.588;5.288;2022-12-18T12:46:19;21.90;91.40
32201;DHT22;18701;45.588;5.288;2022-12-18T12:50:56;21.90;90.50
32201;DHT22;18701;45.588;5.288;2022-12-18T12:53:29;22.10;90.10
32201;DHT22;18701;45.588;5.288;2022-12-18T12:55:55;21.70;90.00
32201;DHT22;18701;45.588;5.288;2022-12-18T13:01:20;22.00;89.80
32201;DHT22;18701;45.588;5.288;2022-12-18T13:03:45;22.60;88.50
32201;DHT22;18701;45.588;5.288;2022-12-18T13:06:28;23.40;86.70
32201;DHT22;18701;45.588;5.288;2022-12-18T13:08:57;22.80;86.90
32201;DHT22;18701;45.588;5.288;2022-12-18T13:11:43;21.60;89.10
32201;DHT22;18701;45.588;5.288;2022-12-18T13:14:35;23.30;86.30
32201;DHT22;18701;45.588;5.288;2022-12-18T13:17:30;23.00;86.30
32201;DHT22;18701;45.588;5.288;2022-12-18T13:20:07;22.30;86.80
32201;DHT22;18701;45.588;5.288;2022-12-18T13:22:41;22.10;87.60
32201;DHT22;18701;45.588;5.288;2022-12-18T13:25:43;22.70;86.40
32201;DHT22;18701;45.588;5.288;2022-12-18T13:28:15;23.50;87.80
32201;DHT22;18701;45.588;5.288;2022-12-18T13:30:46;22.90;86.20
32201;DHT22;18701;45.588;5.288;2022-12-18T13:38:22;22.40;87.30
32201;DHT22;18701;45.588;5.288;2022-12-18T13:48:29;17.30;92.50
32201;DHT22;18701;45.588;5.288;2022-12-18T13:51:07;16.20;94.00
32201;DHT22;18701;45.588;5.288;2022-12-18T13:53:42;15.20;95.50
32201;DHT22;18701;45.588;5.288;2022-12-18T13:56:08;14.80;96.90
32201;DHT22;18701;45.588;5.288;2022-12-18T13:58:34;14.40;97.70
32201;DHT22;18701;45.588;5.288;2022-12-18T14:01:00;13.70;99.10
32201;DHT22;18701;45.588;5.288;2022-12-18T14:03:28;13.20;99.90
32201;DHT22;18701;45.588;5.288;2022-12-18T14:06:07;12.80;99.90
32201;DHT22;18701;45.588;5.288;2022-12-18T14:08:38;12.70;99.90
32201;DHT22;18701;45.588;5.288;2022-12-18T14:11:19;12.40;99.90
32201;DHT22;18701;45.588;5.288;2022-12-18T14:13:46;11.80;99.90
32201;DHT22;18701;45.588;5.288;2022-12-18T14:16:14;11.30;99.90
32201;DHT22;18701;45.588;5.288;2022-12-18T14:18:52;11.00;99.90
32201;DHT22;18701;45.588;5.288;2022-12-18T14:21:22;10.80;99.90
32201;DHT22;18701;45.588;5.288;2022-12-18T14:23:49;10.60;99.90
32201;DHT22;18701;45.588;5.288;2022-12-18T14:26:29;10.40;99.90
32201;DHT22;18701;45.588;5.288;2022-12-18T14:28:56;10.20;99.90
32201;DHT22;18701;45.588;5.288;2022-12-18T14:31:28;10.20;99.90
32201;DHT22;18701;45.588;5.288;2022-12-18T14:33:54;10.10;99.90
32201;DHT22;18701;45.588;5.288;2022-12-18T14:36:23;10.00;99.90
32201;DHT22;18701;45.588;5.288;2022-12-18T14:38:52;9.90;99.90
32201;DHT22;18701;45.588;5.288;2022-12-18T14:41:20;10.00;99.90
32201;DHT22;18701;45.588;5.288;2022-12-18T14:43:53;9.80;99.90
32201;DHT22;18701;45.588;5.288;2022-12-18T14:46:36;9.70;99.90
32201;DHT22;18701;45.588;5.288;2022-12-18T14:49:14;9.60;99.90
32201;DHT22;18701;45.588;5.288;2022-12-18T14:51:49;9.60;99.90
32201;DHT22;18701;45.588;5.288;2022-12-18T14:54:18;9.60;99.90
32201;DHT22;18701;45.588;5.288;2022-12-18T14:56:46;9.50;99.90
32201;DHT22;18701;45.588;5.288;2022-12-18T14:59:19;9.30;99.90
32201;DHT22;18701;45.588;5.288;2022-12-18T15:04:37;9.00;99.90
32201;DHT22;18701;45.588;5.288;2022-12-18T15:07:17;8.90;99.90
32201;DHT22;18701;45.588;5.288;2022-12-18T15:10:16;8.80;99.90
32201;DHT22;18701;45.588;5.288;2022-12-18T15:20:39;8.30;99.90
32201;DHT22;18701;45.588;5.288;2022-12-18T15:23:12;8.30;99.90
32201;DHT22;18701;45.588;5.288;2022-12-18T15:25:38;8.20;99.90
32201;DHT22;18701;45.588;5.288;2022-12-18T15:28:23;8.10;99.90
32201;DHT22;18701;45.588;5.288;2022-12-18T15:34:05;8.00;99.90
32201;DHT22;18701;45.588;5.288;2022-12-18T15:36:26;7.90;99.90
32201;DHT22;18701;45.588;5.288;2022-12-18T15:38:54;7.90;99.90
32201;DHT22;18701;45.588;5.288;2022-12-18T15:41:21;7.80;99.90
32201;DHT22;18701;45.588;5.288;2022-12-18T15:43:49;7.80;99.90
32201;DHT22;18701;45.588;5.288;2022-12-18T15:46:24;7.80;99.90
32201;DHT22;18701;45.588;5.288;2022-12-18T15:48:59;7.70;99.90
32201;DHT22;18701;45.588;5.288;2022-12-18T15:51:26;7.70;99.90
32201;DHT22;18701;45.588;5.288;2022-12-18T15:53:55;7.70;99.90
32201;DHT22;18701;45.588;5.288;2022-12-18T15:56:22;7.70;99.90
32201;DHT22;18701;45.588;5.288;2022-12-18T15:59:10;7.60;99.90
32201;DHT22;18701;45.588;5.288;2022-12-18T16:01:37;7.60;99.90
32201;DHT22;18701;45.588;5.288;2022-12-18T16:04:03;7.60;99.90
32201;DHT22;18701;45.588;5.288;2022-12-18T16:06:28;7.50;99.90
32201;DHT22;18701;45.588;5.288;2022-12-18T16:08:54;7.60;99.90
32201;DHT22;18701;45.588;5.288;2022-12-18T16:14:05;7.50;99.90
32201;DHT22;18701;45.588;5.288;2022-12-18T16:16:31;7.50;99.90
32201;DHT22;18701;45.588;5.288;2022-12-18T16:18:56;7.50;99.90
32201;DHT22;18701;45.588;5.288;2022-12-18T16:21:22;7.50;99.90
32201;DHT22;18701;45.588;5.288;2022-12-18T16:23:47;7.50;99.90
32201;DHT22;18701;45.588;5.288;2022-12-18T16:26:13;7.50;99.90
32201;DHT22;18701;45.588;5.288;2022-12-18T16:28:38;7.50;99.90
32201;DHT22;18701;45.588;5.288;2022-12-18T16:31:04;7.50;99.90
32201;DHT22;18701;45.588;5.288;2022-12-18T16:33:30;7.40;99.90
32201;DHT22;18701;45.588;5.288;2022-12-18T16:35:56;7.50;99.90
32201;DHT22;18701;45.588;5.288;2022-12-18T16:38:21;7.40;99.90
32201;DHT22;18701;45.588;5.288;2022-12-18T16:40:47;7.40;99.90
32201;DHT22;18701;45.588;5.288;2022-12-18T16:43:31;7.30;99.90
32201;DHT22;18701;45.588;5.288;2022-12-18T16:45:58;7.30;99.90
32201;DHT22;18701;45.588;5.288;2022-12-18T16:48:24;7.20;99.90
32201;DHT22;18701;45.588;5.288;2022-12-18T16:50:50;7.20;99.90
32201;DHT22;18701;45.588;5.288;2022-12-18T16:53:24;7.20;99.90
32201;DHT22;18701;45.588;5.288;2022-12-18T16:55:54;7.10;99.90
32201;DHT22;18701;45.588;5.288;2022-12-18T16:58:20;7.10;99.90
32201;DHT22;18701;45.588;5.288;2022-12-18T17:00:45;7.10;99.90
32201;DHT22;18701;45.588;5.288;2022-12-18T17:03:11;7.00;99.90
32201;DHT22;18701;45.588;5.288;2022-12-18T17:05:37;7.00;99.90
32201;DHT22;18701;45.588;5.288;2022-12-18T17:08:02;7.00;99.90
32201;DHT22;18701;45.588;5.288;2022-12-18T17:10:28;7.00;99.90
32201;DHT22;18701;45.588;5.288;2022-12-18T17:12:53;6.90;99.90
32201;DHT22;18701;45.588;5.288;2022-12-18T17:15:19;6.90;99.90
32201;DHT22;18701;45.588;5.288;2022-12-18T17:17:45;6.90;99.90
32201;DHT22;18701;45.588;5.288;2022-12-18T17:20:10;6.90;99.90
32201;DHT22;18701;45.588;5.288;2022-12-18T17:22:36;6.80;99.90
32201;DHT22;18701;45.588;5.288;2022-12-18T17:25:01;6.90;99.90
32201;DHT22;18701;45.588;5.288;2022-12-18T17:27:27;6.90;99.90
32201;DHT22;18701;45.588;5.288;2022-12-18T17:29:53;6.90;99.90
32201;DHT22;18701;45.588;5.288;2022-12-18T17:32:19;6.90;99.90
32201;DHT22;18701;45.588;5.288;2022-12-18T17:34:45;6.90;99.90
32201;DHT22;18701;45.588;5.288;2022-12-18T17:37:11;6.80;99.90
32201;DHT22;18701;45.588;5.288;2022-12-18T17:39:36;6.80;99.90
32201;DHT22;18701;45.588;5.288;2022-12-18T17:42:02;6.70;99.90
32201;DHT22;18701;45.588;5.288;2022-12-18T17:44:28;6.70;99.90
32201;DHT22;18701;45.588;5.288;2022-12-18T17:46:54;6.50;99.90
32201;DHT22;18701;45.588;5.288;2022-12-18T17:49:20;6.40;99.90
32201;DHT22;18701;45.588;5.288;2022-12-18T17:51:46;6.40;99.90
32201;DHT22;18701;45.588;5.288;2022-12-18T17:54:12;6.30;99.90
32201;DHT22;18701;45.588;5.288;2022-12-18T17:56:38;6.30;99.90
32201;DHT22;18701;45.588;5.288;2022-12-18T17:59:04;6.30;99.90
32201;DHT22;18701;45.588;5.288;2022-12-18T18:01:31;6.20;99.90